Strona główna
METAR-TAF:

METAR-TAF

Lotnisko :

Port lotniczy Gran Canaria

Gran Canaria, Hiszpania

Szerokość geograficzna: 27-56N, Długość geograficzna: 015-23W, wysokość: 23 m

Aktualna obserwacja pogody

Raport powstał 17 minut temu, godzina 10:30 UTC
Wiatr 19 kt od północno-północny wschód
Temperatura 23°C
Wilgotność 69%
Ciśnienie 1021 hPa
Widzialność 10 km lub więcej
Mało chmury na wysokości 1500 ft
Przerywane chmury na wysokości 3500 ft

METAR: GCLP 101030Z 03019KT 9999 FEW015 BKN035 23/17 Q1021 NOSIG

czas: 11:47 (10:47 UTC)

Prognoza

Raport powstał 2 godziny i 47 minut temu, godzina 08:00 UTC
Prognoza ważna od 10 godzina 09 UTC do 11 godzina 09 UTC
Wiatr 22 kt od północno-północny wschód
Widzialność 10 km lub więcej
Rozproszone chmury na wysokości 2000 ft

TAF: GCLP 100800Z 1009/1109 02022KT 9999 SCT020 TX24/1013Z TN18/1105Z

Obserwacja i prognoza pogody dla ponad 4000 lotnisk (raport METAR i TAF).

Dostępne stacje oznaczono żółtymi i czerwonymi punktami na mapie.

Najedź kursorem aby zobaczyć nazwę stacji.

Kliknij aby zobaczyć obserwacje i prognozy pogody.

Aby zmienić mapę: kliknij na zielony przycisk z czarnym krzyżykiem, aby powiększyć; na zielony przycisk z myślnikiem, aby pomniejszyć; na zielone strzałki, aby przejść do map sąsiednich.


METAR-TAF: